sensor_id;sensor_type;location;lat;lon;timestamp;P1;durP1;ratioP1;P2;durP2;ratioP2
13349;SDS011;6744;53.190;6.576;2023-06-04T00:01:48;8.27;;;3.13;;
13349;SDS011;6744;53.190;6.576;2023-06-04T00:04:13;3.17;;;2.33;;
13349;SDS011;6744;53.190;6.576;2023-06-04T00:06:39;4.40;;;2.30;;
13349;SDS011;6744;53.190;6.576;2023-06-04T00:09:07;5.30;;;2.20;;
13349;SDS011;6744;53.190;6.576;2023-06-04T00:11:33;4.40;;;2.23;;
13349;SDS011;6744;53.190;6.576;2023-06-04T00:14:00;3.00;;;2.07;;
13349;SDS011;6744;53.190;6.576;2023-06-04T00:16:25;4.07;;;2.03;;
13349;SDS011;6744;53.190;6.576;2023-06-04T00:18:51;4.10;;;2.20;;
13349;SDS011;6744;53.190;6.576;2023-06-04T00:21:16;5.00;;;2.10;;
13349;SDS011;6744;53.190;6.576;2023-06-04T00:23:41;4.77;;;2.60;;
13349;SDS011;6744;53.190;6.576;2023-06-04T00:26:07;5.17;;;2.57;;
13349;SDS011;6744;53.190;6.576;2023-06-04T00:28:32;5.33;;;2.40;;
13349;SDS011;6744;53.190;6.576;2023-06-04T00:30:58;5.20;;;2.60;;
13349;SDS011;6744;53.190;6.576;2023-06-04T00:33:23;6.87;;;2.63;;
13349;SDS011;6744;53.190;6.576;2023-06-04T00:35:48;4.97;;;2.37;;
13349;SDS011;6744;53.190;6.576;2023-06-04T00:38:14;6.50;;;2.70;;
13349;SDS011;6744;53.190;6.576;2023-06-04T00:40:39;3.80;;;2.40;;
13349;SDS011;6744;53.190;6.576;2023-06-04T00:43:05;4.50;;;2.30;;
13349;SDS011;6744;53.190;6.576;2023-06-04T00:45:30;4.07;;;2.40;;
13349;SDS011;6744;53.190;6.576;2023-06-04T00:47:56;5.87;;;2.90;;
13349;SDS011;6744;53.190;6.576;2023-06-04T00:50:22;6.40;;;2.57;;
13349;SDS011;6744;53.190;6.576;2023-06-04T00:52:49;5.70;;;2.90;;
13349;SDS011;6744;53.190;6.576;2023-06-04T00:55:15;3.37;;;2.30;;
13349;SDS011;6744;53.190;6.576;2023-06-04T00:57:43;4.13;;;2.47;;
13349;SDS011;6744;53.190;6.576;2023-06-04T01:00:08;4.53;;;2.50;;
13349;SDS011;6744;53.190;6.576;2023-06-04T01:02:35;5.17;;;2.30;;
13349;SDS011;6744;53.190;6.576;2023-06-04T01:07:44;4.57;;;2.57;;
13349;SDS011;6744;53.190;6.576;2023-06-04T01:10:12;5.20;;;2.47;;
13349;SDS011;6744;53.190;6.576;2023-06-04T01:12:41;4.27;;;2.53;;
13349;SDS011;6744;53.190;6.576;2023-06-04T01:15:07;4.73;;;2.73;;
13349;SDS011;6744;53.190;6.576;2023-06-04T01:25:27;4.97;;;3.00;;
13349;SDS011;6744;53.190;6.576;2023-06-04T01:27:57;5.93;;;2.70;;
13349;SDS011;6744;53.190;6.576;2023-06-04T01:30:24;4.53;;;2.97;;
13349;SDS011;6744;53.190;6.576;2023-06-04T01:32:50;7.20;;;2.80;;
13349;SDS011;6744;53.190;6.576;2023-06-04T01:35:17;5.60;;;2.83;;
13349;SDS011;6744;53.190;6.576;2023-06-04T01:37:42;4.57;;;2.93;;
13349;SDS011;6744;53.190;6.576;2023-06-04T01:40:07;6.37;;;3.13;;
13349;SDS011;6744;53.190;6.576;2023-06-04T01:42:33;5.23;;;3.10;;
13349;SDS011;6744;53.190;6.576;2023-06-04T01:44:59;5.27;;;3.23;;
13349;SDS011;6744;53.190;6.576;2023-06-04T01:47:25;6.03;;;3.67;;
13349;SDS011;6744;53.190;6.576;2023-06-04T01:49:50;5.27;;;3.23;;
13349;SDS011;6744;53.190;6.576;2023-06-04T01:52:16;4.17;;;3.13;;
13349;SDS011;6744;53.190;6.576;2023-06-04T01:54:41;6.07;;;3.07;;
13349;SDS011;6744;53.190;6.576;2023-06-04T01:57:07;6.57;;;3.53;;
13349;SDS011;6744;53.190;6.576;2023-06-04T01:59:34;6.07;;;3.60;;
13349;SDS011;6744;53.190;6.576;2023-06-04T02:02:01;5.93;;;3.50;;
13349;SDS011;6744;53.190;6.576;2023-06-04T02:04:27;6.87;;;3.70;;
13349;SDS011;6744;53.190;6.576;2023-06-04T02:06:52;5.27;;;3.43;;
13349;SDS011;6744;53.190;6.576;2023-06-04T02:09:18;6.03;;;3.43;;
13349;SDS011;6744;53.190;6.576;2023-06-04T02:11:43;6.43;;;3.87;;
13349;SDS011;6744;53.190;6.576;2023-06-04T02:14:08;6.37;;;3.40;;
13349;SDS011;6744;53.190;6.576;2023-06-04T02:16:34;4.87;;;3.20;;
13349;SDS011;6744;53.190;6.576;2023-06-04T02:18:59;4.93;;;3.17;;
13349;SDS011;6744;53.190;6.576;2023-06-04T02:21:25;5.80;;;3.33;;
13349;SDS011;6744;53.190;6.576;2023-06-04T02:23:51;7.07;;;3.43;;
13349;SDS011;6744;53.190;6.576;2023-06-04T02:26:16;5.93;;;3.30;;
13349;SDS011;6744;53.190;6.576;2023-06-04T02:28:42;5.03;;;3.70;;
13349;SDS011;6744;53.190;6.576;2023-06-04T02:31:07;7.43;;;3.60;;
13349;SDS011;6744;53.190;6.576;2023-06-04T02:33:33;5.13;;;3.03;;
13349;SDS011;6744;53.190;6.576;2023-06-04T02:35:58;6.17;;;3.90;;
13349;SDS011;6744;53.190;6.576;2023-06-04T02:38:23;6.10;;;3.43;;
13349;SDS011;6744;53.190;6.576;2023-06-04T02:40:49;4.40;;;3.33;;
13349;SDS011;6744;53.190;6.576;2023-06-04T02:43:14;4.67;;;3.10;;
13349;SDS011;6744;53.190;6.576;2023-06-04T02:45:40;5.13;;;3.63;;
13349;SDS011;6744;53.190;6.576;2023-06-04T02:48:05;7.33;;;4.50;;
13349;SDS011;6744;53.190;6.576;2023-06-04T02:50:31;6.73;;;4.27;;
13349;SDS011;6744;53.190;6.576;2023-06-04T02:52:56;6.87;;;4.30;;
13349;SDS011;6744;53.190;6.576;2023-06-04T02:55:21;5.93;;;4.30;;
13349;SDS011;6744;53.190;6.576;2023-06-04T02:57:47;7.43;;;4.20;;
13349;SDS011;6744;53.190;6.576;2023-06-04T03:00:12;9.43;;;4.73;;
13349;SDS011;6744;53.190;6.576;2023-06-04T03:02:42;8.70;;;4.33;;
13349;SDS011;6744;53.190;6.576;2023-06-04T03:05:10;4.63;;;3.80;;
13349;SDS011;6744;53.190;6.576;2023-06-04T03:07:37;5.80;;;4.07;;
13349;SDS011;6744;53.190;6.576;2023-06-04T03:10:03;6.90;;;4.33;;
13349;SDS011;6744;53.190;6.576;2023-06-04T03:12:29;7.70;;;4.10;;
13349;SDS011;6744;53.190;6.576;2023-06-04T03:14:54;7.17;;;4.13;;
13349;SDS011;6744;53.190;6.576;2023-06-04T03:17:20;4.70;;;3.77;;
13349;SDS011;6744;53.190;6.576;2023-06-04T03:19:45;5.87;;;3.90;;
13349;SDS011;6744;53.190;6.576;2023-06-04T03:22:10;5.43;;;3.53;;
13349;SDS011;6744;53.190;6.576;2023-06-04T03:24:37;5.97;;;3.70;;
13349;SDS011;6744;53.190;6.576;2023-06-04T03:27:04;4.97;;;3.43;;
13349;SDS011;6744;53.190;6.576;2023-06-04T03:29:30;5.57;;;3.63;;
13349;SDS011;6744;53.190;6.576;2023-06-04T03:31:57;5.97;;;3.70;;
13349;SDS011;6744;53.190;6.576;2023-06-04T03:34:22;5.10;;;3.50;;
13349;SDS011;6744;53.190;6.576;2023-06-04T03:36:51;5.60;;;3.33;;
13349;SDS011;6744;53.190;6.576;2023-06-04T03:39:17;6.20;;;3.43;;
13349;SDS011;6744;53.190;6.576;2023-06-04T03:41:42;6.07;;;3.40;;
13349;SDS011;6744;53.190;6.576;2023-06-04T03:44:08;7.00;;;4.00;;
13349;SDS011;6744;53.190;6.576;2023-06-04T03:46:33;4.53;;;3.27;;
13349;SDS011;6744;53.190;6.576;2023-06-04T03:48:58;4.33;;;3.40;;
13349;SDS011;6744;53.190;6.576;2023-06-04T03:51:24;7.17;;;3.77;;
13349;SDS011;6744;53.190;6.576;2023-06-04T03:53:50;6.43;;;3.33;;
13349;SDS011;6744;53.190;6.576;2023-06-04T03:56:15;7.50;;;3.90;;
13349;SDS011;6744;53.190;6.576;2023-06-04T03:58:41;5.57;;;3.57;;
13349;SDS011;6744;53.190;6.576;2023-06-04T04:01:06;5.67;;;3.30;;
13349;SDS011;6744;53.190;6.576;2023-06-04T04:03:33;6.40;;;3.70;;
13349;SDS011;6744;53.190;6.576;2023-06-04T04:05:59;7.87;;;3.77;;
13349;SDS011;6744;53.190;6.576;2023-06-04T04:08:25;7.27;;;3.70;;
13349;SDS011;6744;53.190;6.576;2023-06-04T04:10:55;7.57;;;3.97;;
13349;SDS011;6744;53.190;6.576;2023-06-04T04:13:23;6.10;;;3.67;;
13349;SDS011;6744;53.190;6.576;2023-06-04T04:15:48;4.90;;;3.70;;
13349;SDS011;6744;53.190;6.576;2023-06-04T04:18:17;4.87;;;3.60;;
13349;SDS011;6744;53.190;6.576;2023-06-04T04:20:46;3.40;;;2.63;;
13349;SDS011;6744;53.190;6.576;2023-06-04T04:23:12;4.87;;;2.90;;
13349;SDS011;6744;53.190;6.576;2023-06-04T04:25:37;4.97;;;2.90;;
13349;SDS011;6744;53.190;6.576;2023-06-04T04:28:03;7.57;;;3.73;;
13349;SDS011;6744;53.190;6.576;2023-06-04T04:30:31;5.80;;;3.50;;
13349;SDS011;6744;53.190;6.576;2023-06-04T04:32:59;4.50;;;3.60;;
13349;SDS011;6744;53.190;6.576;2023-06-04T04:35:25;5.23;;;3.60;;
13349;SDS011;6744;53.190;6.576;2023-06-04T04:37:50;6.60;;;3.37;;
13349;SDS011;6744;53.190;6.576;2023-06-04T04:40:16;6.57;;;4.37;;
13349;SDS011;6744;53.190;6.576;2023-06-04T04:42:41;6.67;;;4.33;;
13349;SDS011;6744;53.190;6.576;2023-06-04T04:45:24;4.33;;;3.53;;
13349;SDS011;6744;53.190;6.576;2023-06-04T04:47:50;6.37;;;4.30;;
13349;SDS011;6744;53.190;6.576;2023-06-04T04:50:18;7.40;;;4.57;;
13349;SDS011;6744;53.190;6.576;2023-06-04T04:52:43;7.50;;;4.70;;
13349;SDS011;6744;53.190;6.576;2023-06-04T04:55:08;5.60;;;4.70;;
13349;SDS011;6744;53.190;6.576;2023-06-04T04:57:34;7.43;;;4.80;;
13349;SDS011;6744;53.190;6.576;2023-06-04T05:00:00;8.53;;;4.77;;
13349;SDS011;6744;53.190;6.576;2023-06-04T05:02:25;7.10;;;5.10;;
13349;SDS011;6744;53.190;6.576;2023-06-04T05:04:50;7.03;;;5.27;;
13349;SDS011;6744;53.190;6.576;2023-06-04T05:07:16;6.17;;;4.60;;
13349;SDS011;6744;53.190;6.576;2023-06-04T05:09:41;6.43;;;4.87;;
13349;SDS011;6744;53.190;6.576;2023-06-04T05:12:06;4.97;;;4.27;;
13349;SDS011;6744;53.190;6.576;2023-06-04T05:14:32;6.37;;;4.00;;
13349;SDS011;6744;53.190;6.576;2023-06-04T05:17:00;6.67;;;3.87;;
13349;SDS011;6744;53.190;6.576;2023-06-04T05:19:28;8.07;;;4.93;;
13349;SDS011;6744;53.190;6.576;2023-06-04T05:21:53;9.97;;;4.93;;
13349;SDS011;6744;53.190;6.576;2023-06-04T05:24:19;7.37;;;4.27;;
13349;SDS011;6744;53.190;6.576;2023-06-04T05:26:44;5.77;;;3.80;;
13349;SDS011;6744;53.190;6.576;2023-06-04T05:29:10;8.30;;;4.17;;
13349;SDS011;6744;53.190;6.576;2023-06-04T05:31:35;9.97;;;5.27;;
13349;SDS011;6744;53.190;6.576;2023-06-04T05:34:02;9.50;;;4.53;;
13349;SDS011;6744;53.190;6.576;2023-06-04T05:36:29;7.57;;;4.07;;
13349;SDS011;6744;53.190;6.576;2023-06-04T05:38:55;6.27;;;3.50;;
13349;SDS011;6744;53.190;6.576;2023-06-04T05:41:22;5.07;;;3.23;;
13349;SDS011;6744;53.190;6.576;2023-06-04T05:43:48;7.00;;;4.17;;
13349;SDS011;6744;53.190;6.576;2023-06-04T05:46:14;5.97;;;3.97;;
13349;SDS011;6744;53.190;6.576;2023-06-04T05:48:40;6.57;;;3.73;;
13349;SDS011;6744;53.190;6.576;2023-06-04T05:51:05;8.93;;;3.93;;
13349;SDS011;6744;53.190;6.576;2023-06-04T05:53:31;6.17;;;3.37;;
13349;SDS011;6744;53.190;6.576;2023-06-04T05:55:57;7.13;;;3.00;;
13349;SDS011;6744;53.190;6.576;2023-06-04T05:58:22;6.43;;;3.27;;
13349;SDS011;6744;53.190;6.576;2023-06-04T06:00:48;6.40;;;3.00;;
13349;SDS011;6744;53.190;6.576;2023-06-04T06:03:15;6.07;;;2.83;;
13349;SDS011;6744;53.190;6.576;2023-06-04T06:05:41;5.87;;;3.00;;
13349;SDS011;6744;53.190;6.576;2023-06-04T06:08:07;7.93;;;3.00;;
13349;SDS011;6744;53.190;6.576;2023-06-04T06:10:33;8.53;;;3.07;;
13349;SDS011;6744;53.190;6.576;2023-06-04T06:12:58;5.97;;;3.00;;
13349;SDS011;6744;53.190;6.576;2023-06-04T06:15:25;6.57;;;2.97;;
13349;SDS011;6744;53.190;6.576;2023-06-04T06:17:50;5.93;;;2.90;;
13349;SDS011;6744;53.190;6.576;2023-06-04T06:20:17;8.33;;;2.67;;
13349;SDS011;6744;53.190;6.576;2023-06-04T06:22:42;5.73;;;2.37;;
13349;SDS011;6744;53.190;6.576;2023-06-04T06:25:08;8.50;;;2.80;;
13349;SDS011;6744;53.190;6.576;2023-06-04T06:27:33;6.43;;;3.10;;
13349;SDS011;6744;53.190;6.576;2023-06-04T06:30:00;5.37;;;2.50;;
13349;SDS011;6744;53.190;6.576;2023-06-04T06:32:25;5.60;;;2.97;;
13349;SDS011;6744;53.190;6.576;2023-06-04T06:34:52;7.03;;;3.10;;
13349;SDS011;6744;53.190;6.576;2023-06-04T06:37:17;7.00;;;3.13;;
13349;SDS011;6744;53.190;6.576;2023-06-04T06:39:42;6.40;;;3.10;;
13349;SDS011;6744;53.190;6.576;2023-06-04T06:42:08;6.07;;;3.00;;
13349;SDS011;6744;53.190;6.576;2023-06-04T06:44:33;6.80;;;2.80;;
13349;SDS011;6744;53.190;6.576;2023-06-04T06:46:59;4.83;;;2.50;;
13349;SDS011;6744;53.190;6.576;2023-06-04T06:49:24;4.77;;;1.97;;
13349;SDS011;6744;53.190;6.576;2023-06-04T06:51:49;3.77;;;1.63;;
13349;SDS011;6744;53.190;6.576;2023-06-04T06:54:15;4.80;;;1.83;;
13349;SDS011;6744;53.190;6.576;2023-06-04T06:56:41;5.30;;;1.70;;
13349;SDS011;6744;53.190;6.576;2023-06-04T06:59:06;5.07;;;2.07;;
13349;SDS011;6744;53.190;6.576;2023-06-04T07:01:32;4.73;;;1.63;;
13349;SDS011;6744;53.190;6.576;2023-06-04T07:03:58;4.70;;;1.80;;
13349;SDS011;6744;53.190;6.576;2023-06-04T07:06:23;3.30;;;1.70;;
13349;SDS011;6744;53.190;6.576;2023-06-04T07:08:49;4.23;;;1.60;;
13349;SDS011;6744;53.190;6.576;2023-06-04T07:11:14;3.23;;;1.70;;
13349;SDS011;6744;53.190;6.576;2023-06-04T07:13:41;4.10;;;1.83;;
13349;SDS011;6744;53.190;6.576;2023-06-04T07:16:07;3.30;;;1.57;;
13349;SDS011;6744;53.190;6.576;2023-06-04T07:18:32;3.93;;;1.80;;
13349;SDS011;6744;53.190;6.576;2023-06-04T07:20:58;4.10;;;1.70;;
13349;SDS011;6744;53.190;6.576;2023-06-04T07:23:23;3.83;;;1.77;;
13349;SDS011;6744;53.190;6.576;2023-06-04T07:25:48;4.93;;;1.90;;
13349;SDS011;6744;53.190;6.576;2023-06-04T07:28:14;3.43;;;1.50;;
13349;SDS011;6744;53.190;6.576;2023-06-04T07:30:40;2.60;;;1.83;;
13349;SDS011;6744;53.190;6.576;2023-06-04T07:33:05;4.10;;;1.97;;
13349;SDS011;6744;53.190;6.576;2023-06-04T07:35:31;3.13;;;1.63;;
13349;SDS011;6744;53.190;6.576;2023-06-04T07:37:56;4.07;;;1.57;;
13349;SDS011;6744;53.190;6.576;2023-06-04T07:40:22;4.33;;;1.60;;
13349;SDS011;6744;53.190;6.576;2023-06-04T07:42:47;3.10;;;1.40;;
13349;SDS011;6744;53.190;6.576;2023-06-04T07:45:13;4.40;;;1.87;;
13349;SDS011;6744;53.190;6.576;2023-06-04T07:47:39;3.13;;;1.40;;
13349;SDS011;6744;53.190;6.576;2023-06-04T07:50:04;2.50;;;1.50;;
13349;SDS011;6744;53.190;6.576;2023-06-04T07:52:31;4.03;;;1.40;;
13349;SDS011;6744;53.190;6.576;2023-06-04T07:54:56;4.20;;;1.63;;
13349;SDS011;6744;53.190;6.576;2023-06-04T07:57:22;3.40;;;1.50;;
13349;SDS011;6744;53.190;6.576;2023-06-04T07:59:47;4.07;;;1.43;;
13349;SDS011;6744;53.190;6.576;2023-06-04T08:02:14;2.73;;;1.30;;
13349;SDS011;6744;53.190;6.576;2023-06-04T08:04:40;3.63;;;1.43;;
13349;SDS011;6744;53.190;6.576;2023-06-04T08:07:05;3.63;;;1.77;;
13349;SDS011;6744;53.190;6.576;2023-06-04T08:09:30;3.97;;;1.47;;
13349;SDS011;6744;53.190;6.576;2023-06-04T08:11:56;1.83;;;1.40;;
13349;SDS011;6744;53.190;6.576;2023-06-04T08:14:21;3.37;;;1.50;;
13349;SDS011;6744;53.190;6.576;2023-06-04T08:16:47;3.13;;;1.40;;
13349;SDS011;6744;53.190;6.576;2023-06-04T08:19:12;3.27;;;1.50;;
13349;SDS011;6744;53.190;6.576;2023-06-04T08:21:38;2.80;;;1.30;;
13349;SDS011;6744;53.190;6.576;2023-06-04T08:24:05;4.40;;;1.70;;
13349;SDS011;6744;53.190;6.576;2023-06-04T08:26:31;3.13;;;1.40;;
13349;SDS011;6744;53.190;6.576;2023-06-04T08:28:57;2.50;;;1.70;;
13349;SDS011;6744;53.190;6.576;2023-06-04T08:31:22;3.13;;;1.57;;
13349;SDS011;6744;53.190;6.576;2023-06-04T08:33:48;3.40;;;1.60;;
13349;SDS011;6744;53.190;6.576;2023-06-04T08:36:13;2.40;;;1.60;;
13349;SDS011;6744;53.190;6.576;2023-06-04T08:38:41;3.70;;;1.70;;
13349;SDS011;6744;53.190;6.576;2023-06-04T08:41:13;3.50;;;1.70;;
13349;SDS011;6744;53.190;6.576;2023-06-04T08:43:40;2.77;;;1.30;;
13349;SDS011;6744;53.190;6.576;2023-06-04T08:46:08;2.90;;;1.50;;
13349;SDS011;6744;53.190;6.576;2023-06-04T08:48:34;2.43;;;1.50;;
13349;SDS011;6744;53.190;6.576;2023-06-04T08:51:01;3.53;;;1.50;;
13349;SDS011;6744;53.190;6.576;2023-06-04T08:53:27;3.83;;;2.10;;
13349;SDS011;6744;53.190;6.576;2023-06-04T08:55:53;2.97;;;1.60;;
13349;SDS011;6744;53.190;6.576;2023-06-04T08:58:18;5.87;;;1.80;;
13349;SDS011;6744;53.190;6.576;2023-06-04T09:00:44;3.07;;;1.50;;
13349;SDS011;6744;53.190;6.576;2023-06-04T09:03:12;4.43;;;1.50;;
13349;SDS011;6744;53.190;6.576;2023-06-04T09:05:40;3.20;;;1.53;;
13349;SDS011;6744;53.190;6.576;2023-06-04T09:08:07;3.43;;;1.40;;
13349;SDS011;6744;53.190;6.576;2023-06-04T09:10:33;4.07;;;1.40;;
13349;SDS011;6744;53.190;6.576;2023-06-04T09:13:01;3.27;;;1.40;;
13349;SDS011;6744;53.190;6.576;2023-06-04T09:15:28;2.73;;;1.50;;
13349;SDS011;6744;53.190;6.576;2023-06-04T09:17:53;2.77;;;1.43;;
13349;SDS011;6744;53.190;6.576;2023-06-04T09:20:19;2.07;;;1.20;;
13349;SDS011;6744;53.190;6.576;2023-06-04T09:22:46;4.40;;;1.60;;
13349;SDS011;6744;53.190;6.576;2023-06-04T09:25:19;2.03;;;1.13;;
13349;SDS011;6744;53.190;6.576;2023-06-04T09:27:45;2.73;;;1.10;;
13349;SDS011;6744;53.190;6.576;2023-06-04T09:30:11;3.33;;;1.40;;
13349;SDS011;6744;53.190;6.576;2023-06-04T09:32:36;2.70;;;1.50;;
13349;SDS011;6744;53.190;6.576;2023-06-04T09:35:35;3.40;;;1.40;;
13349;SDS011;6744;53.190;6.576;2023-06-04T09:37:54;3.13;;;1.60;;
13349;SDS011;6744;53.190;6.576;2023-06-04T09:40:23;2.30;;;1.37;;
13349;SDS011;6744;53.190;6.576;2023-06-04T09:42:49;2.53;;;1.23;;
13349;SDS011;6744;53.190;6.576;2023-06-04T09:45:26;3.30;;;1.70;;
13349;SDS011;6744;53.190;6.576;2023-06-04T09:47:54;2.17;;;1.30;;
13349;SDS011;6744;53.190;6.576;2023-06-04T09:50:24;2.27;;;1.40;;
13349;SDS011;6744;53.190;6.576;2023-06-04T09:52:51;2.23;;;1.37;;
13349;SDS011;6744;53.190;6.576;2023-06-04T09:55:17;4.20;;;1.43;;
13349;SDS011;6744;53.190;6.576;2023-06-04T09:57:47;3.03;;;1.30;;
13349;SDS011;6744;53.190;6.576;2023-06-04T10:00:17;2.47;;;1.40;;
13349;SDS011;6744;53.190;6.576;2023-06-04T10:02:44;2.77;;;1.50;;
13349;SDS011;6744;53.190;6.576;2023-06-04T10:05:11;2.00;;;1.30;;
13349;SDS011;6744;53.190;6.576;2023-06-04T10:07:39;2.47;;;1.60;;
13349;SDS011;6744;53.190;6.576;2023-06-04T10:10:06;3.17;;;1.30;;
13349;SDS011;6744;53.190;6.576;2023-06-04T10:12:34;2.23;;;1.30;;
13349;SDS011;6744;53.190;6.576;2023-06-04T10:15:02;3.23;;;1.30;;
13349;SDS011;6744;53.190;6.576;2023-06-04T10:17:35;2.67;;;1.33;;
13349;SDS011;6744;53.190;6.576;2023-06-04T10:20:01;1.97;;;1.20;;
13349;SDS011;6744;53.190;6.576;2023-06-04T10:22:30;2.50;;;1.50;;
13349;SDS011;6744;53.190;6.576;2023-06-04T10:24:57;2.47;;;1.20;;
13349;SDS011;6744;53.190;6.576;2023-06-04T10:27:23;2.33;;;1.40;;
13349;SDS011;6744;53.190;6.576;2023-06-04T10:29:49;2.47;;;1.20;;
13349;SDS011;6744;53.190;6.576;2023-06-04T10:32:15;2.63;;;1.30;;
13349;SDS011;6744;53.190;6.576;2023-06-04T10:34:41;2.87;;;1.13;;
13349;SDS011;6744;53.190;6.576;2023-06-04T10:37:18;2.33;;;1.33;;
13349;SDS011;6744;53.190;6.576;2023-06-04T10:39:53;2.13;;;1.30;;
13349;SDS011;6744;53.190;6.576;2023-06-04T10:42:19;2.97;;;1.20;;
13349;SDS011;6744;53.190;6.576;2023-06-04T10:44:47;1.80;;;1.30;;
13349;SDS011;6744;53.190;6.576;2023-06-04T10:47:23;2.10;;;1.33;;
13349;SDS011;6744;53.190;6.576;2023-06-04T10:49:53;2.73;;;1.27;;
13349;SDS011;6744;53.190;6.576;2023-06-04T10:52:19;1.93;;;1.20;;
13349;SDS011;6744;53.190;6.576;2023-06-04T10:54:45;3.47;;;2.23;;
13349;SDS011;6744;53.190;6.576;2023-06-04T10:57:15;4.90;;;1.73;;
13349;SDS011;6744;53.190;6.576;2023-06-04T10:59:41;2.30;;;1.30;;
13349;SDS011;6744;53.190;6.576;2023-06-04T11:02:18;2.37;;;1.37;;
13349;SDS011;6744;53.190;6.576;2023-06-04T11:04:43;3.30;;;1.37;;
13349;SDS011;6744;53.190;6.576;2023-06-04T11:07:09;2.47;;;1.30;;
13349;SDS011;6744;53.190;6.576;2023-06-04T11:09:35;2.37;;;1.47;;
13349;SDS011;6744;53.190;6.576;2023-06-04T11:12:01;2.27;;;1.40;;
13349;SDS011;6744;53.190;6.576;2023-06-04T11:14:27;2.43;;;1.40;;
13349;SDS011;6744;53.190;6.576;2023-06-04T11:16:52;1.60;;;1.27;;
13349;SDS011;6744;53.190;6.576;2023-06-04T11:19:18;2.40;;;1.40;;
13349;SDS011;6744;53.190;6.576;2023-06-04T11:21:43;2.17;;;1.30;;
13349;SDS011;6744;53.190;6.576;2023-06-04T11:24:11;1.60;;;1.20;;
13349;SDS011;6744;53.190;6.576;2023-06-04T11:26:37;2.10;;;1.27;;
13349;SDS011;6744;53.190;6.576;2023-06-04T11:29:05;2.73;;;1.30;;
13349;SDS011;6744;53.190;6.576;2023-06-04T11:31:44;1.93;;;1.30;;
13349;SDS011;6744;53.190;6.576;2023-06-04T11:34:10;2.47;;;1.30;;
13349;SDS011;6744;53.190;6.576;2023-06-04T11:36:39;3.60;;;1.30;;
13349;SDS011;6744;53.190;6.576;2023-06-04T11:39:04;2.30;;;1.27;;
13349;SDS011;6744;53.190;6.576;2023-06-04T11:41:36;3.17;;;1.40;;
13349;SDS011;6744;53.190;6.576;2023-06-04T11:44:05;2.57;;;1.20;;
13349;SDS011;6744;53.190;6.576;2023-06-04T11:46:34;2.40;;;1.47;;
13349;SDS011;6744;53.190;6.576;2023-06-04T11:49:00;1.47;;;1.20;;
13349;SDS011;6744;53.190;6.576;2023-06-04T11:51:27;2.43;;;1.30;;
13349;SDS011;6744;53.190;6.576;2023-06-04T11:53:52;1.87;;;1.40;;
13349;SDS011;6744;53.190;6.576;2023-06-04T11:56:18;1.57;;;0.93;;
13349;SDS011;6744;53.190;6.576;2023-06-04T11:58:43;1.80;;;1.30;;
13349;SDS011;6744;53.190;6.576;2023-06-04T12:01:21;2.00;;;1.20;;
13349;SDS011;6744;53.190;6.576;2023-06-04T12:03:47;2.30;;;1.30;;
13349;SDS011;6744;53.190;6.576;2023-06-04T12:06:14;2.27;;;1.30;;
13349;SDS011;6744;53.190;6.576;2023-06-04T12:08:47;2.23;;;1.30;;
13349;SDS011;6744;53.190;6.576;2023-06-04T12:11:28;1.97;;;1.40;;
13349;SDS011;6744;53.190;6.576;2023-06-04T12:13:56;2.63;;;1.37;;
13349;SDS011;6744;53.190;6.576;2023-06-04T12:16:25;3.10;;;1.40;;
13349;SDS011;6744;53.190;6.576;2023-06-04T12:18:51;2.23;;;1.37;;
13349;SDS011;6744;53.190;6.576;2023-06-04T12:21:25;2.47;;;1.33;;
13349;SDS011;6744;53.190;6.576;2023-06-04T12:23:54;2.13;;;1.30;;
13349;SDS011;6744;53.190;6.576;2023-06-04T12:26:31;2.60;;;1.70;;
13349;SDS011;6744;53.190;6.576;2023-06-04T12:28:59;2.40;;;1.13;;
13349;SDS011;6744;53.190;6.576;2023-06-04T12:31:25;2.50;;;1.20;;
13349;SDS011;6744;53.190;6.576;2023-06-04T12:33:56;2.60;;;1.20;;
13349;SDS011;6744;53.190;6.576;2023-06-04T12:36:22;2.40;;;1.63;;
13349;SDS011;6744;53.190;6.576;2023-06-04T12:38:47;1.93;;;1.20;;
13349;SDS011;6744;53.190;6.576;2023-06-04T12:41:12;2.43;;;1.10;;
13349;SDS011;6744;53.190;6.576;2023-06-04T12:43:38;2.30;;;1.50;;
13349;SDS011;6744;53.190;6.576;2023-06-04T12:46:03;2.97;;;1.73;;
13349;SDS011;6744;53.190;6.576;2023-06-04T12:48:28;2.00;;;1.20;;
13349;SDS011;6744;53.190;6.576;2023-06-04T12:50:54;2.33;;;1.50;;
13349;SDS011;6744;53.190;6.576;2023-06-04T12:53:19;2.47;;;1.30;;
13349;SDS011;6744;53.190;6.576;2023-06-04T12:55:45;2.03;;;1.30;;
13349;SDS011;6744;53.190;6.576;2023-06-04T12:58:10;2.27;;;1.20;;
13349;SDS011;6744;53.190;6.576;2023-06-04T13:00:38;3.27;;;1.20;;
13349;SDS011;6744;53.190;6.576;2023-06-04T13:03:03;3.93;;;1.47;;
13349;SDS011;6744;53.190;6.576;2023-06-04T13:05:29;3.87;;;1.60;;
13349;SDS011;6744;53.190;6.576;2023-06-04T13:07:56;2.50;;;1.20;;
13349;SDS011;6744;53.190;6.576;2023-06-04T13:10:22;2.07;;;1.30;;
13349;SDS011;6744;53.190;6.576;2023-06-04T13:12:47;2.70;;;1.30;;
13349;SDS011;6744;53.190;6.576;2023-06-04T13:15:12;2.10;;;1.30;;
13349;SDS011;6744;53.190;6.576;2023-06-04T13:17:38;2.10;;;1.10;;
13349;SDS011;6744;53.190;6.576;2023-06-04T13:20:03;1.90;;;1.23;;
13349;SDS011;6744;53.190;6.576;2023-06-04T13:22:31;2.40;;;1.20;;
13349;SDS011;6744;53.190;6.576;2023-06-04T13:24:56;3.40;;;1.40;;
13349;SDS011;6744;53.190;6.576;2023-06-04T13:27:21;2.27;;;1.20;;
13349;SDS011;6744;53.190;6.576;2023-06-04T13:29:47;2.83;;;1.40;;
13349;SDS011;6744;53.190;6.576;2023-06-04T13:32:12;4.17;;;1.30;;
13349;SDS011;6744;53.190;6.576;2023-06-04T13:34:37;2.70;;;1.20;;
13349;SDS011;6744;53.190;6.576;2023-06-04T13:37:03;2.80;;;1.30;;
13349;SDS011;6744;53.190;6.576;2023-06-04T13:39:29;3.07;;;1.30;;
13349;SDS011;6744;53.190;6.576;2023-06-04T13:41:54;3.33;;;1.53;;
13349;SDS011;6744;53.190;6.576;2023-06-04T13:44:21;3.27;;;1.40;;
13349;SDS011;6744;53.190;6.576;2023-06-04T13:46:50;2.33;;;1.40;;
13349;SDS011;6744;53.190;6.576;2023-06-04T13:49:16;3.03;;;1.30;;
13349;SDS011;6744;53.190;6.576;2023-06-04T13:51:41;2.80;;;1.63;;
13349;SDS011;6744;53.190;6.576;2023-06-04T13:54:06;2.40;;;1.30;;
13349;SDS011;6744;53.190;6.576;2023-06-04T13:56:32;2.53;;;1.27;;
13349;SDS011;6744;53.190;6.576;2023-06-04T13:58:57;2.43;;;1.20;;
13349;SDS011;6744;53.190;6.576;2023-06-04T14:01:22;3.37;;;1.43;;
13349;SDS011;6744;53.190;6.576;2023-06-04T14:03:48;2.27;;;1.23;;
13349;SDS011;6744;53.190;6.576;2023-06-04T14:06:13;3.40;;;1.60;;
13349;SDS011;6744;53.190;6.576;2023-06-04T14:08:38;4.47;;;1.50;;
13349;SDS011;6744;53.190;6.576;2023-06-04T14:11:04;1.87;;;1.30;;
13349;SDS011;6744;53.190;6.576;2023-06-04T14:13:29;4.10;;;1.40;;
13349;SDS011;6744;53.190;6.576;2023-06-04T14:15:54;3.30;;;1.70;;
13349;SDS011;6744;53.190;6.576;2023-06-04T14:18:20;3.10;;;1.47;;
13349;SDS011;6744;53.190;6.576;2023-06-04T14:20:45;3.40;;;1.30;;
13349;SDS011;6744;53.190;6.576;2023-06-04T14:23:11;3.37;;;1.50;;
13349;SDS011;6744;53.190;6.576;2023-06-04T14:25:37;2.27;;;1.30;;
13349;SDS011;6744;53.190;6.576;2023-06-04T14:28:02;4.00;;;1.50;;
13349;SDS011;6744;53.190;6.576;2023-06-04T14:30:27;3.13;;;1.40;;
13349;SDS011;6744;53.190;6.576;2023-06-04T14:32:53;1.93;;;1.40;;
13349;SDS011;6744;53.190;6.576;2023-06-04T14:35:18;2.07;;;1.37;;
13349;SDS011;6744;53.190;6.576;2023-06-04T14:37:43;3.10;;;1.00;;
13349;SDS011;6744;53.190;6.576;2023-06-04T14:40:09;2.27;;;1.10;;
13349;SDS011;6744;53.190;6.576;2023-06-04T14:42:34;1.80;;;1.20;;
13349;SDS011;6744;53.190;6.576;2023-06-04T14:45:12;4.73;;;1.40;;
13349;SDS011;6744;53.190;6.576;2023-06-04T14:47:37;2.27;;;1.13;;
13349;SDS011;6744;53.190;6.576;2023-06-04T14:50:03;2.10;;;1.27;;
13349;SDS011;6744;53.190;6.576;2023-06-04T14:52:28;3.07;;;1.47;;
13349;SDS011;6744;53.190;6.576;2023-06-04T14:54:54;2.17;;;1.20;;
13349;SDS011;6744;53.190;6.576;2023-06-04T14:57:19;2.07;;;1.30;;
13349;SDS011;6744;53.190;6.576;2023-06-04T14:59:45;2.07;;;1.10;;
13349;SDS011;6744;53.190;6.576;2023-06-04T15:02:13;3.43;;;1.50;;
13349;SDS011;6744;53.190;6.576;2023-06-04T15:04:44;2.77;;;1.20;;
13349;SDS011;6744;53.190;6.576;2023-06-04T15:07:09;2.40;;;1.27;;